Home > Products > Valid Products > MTR

000
SAUS44 KLZK 280054
MTRMWT
METAR KMWT 280053Z AUTO 00000KT 10SM CLR 13/03 A3010 RMK AO2 SLP198
T01330028





000
SAUS44 KLZK 272354
MTRMWT
METAR KMWT 272353Z AUTO 00000KT 10SM CLR 17/02 A3009 RMK AO2 SLP193
T01670022 10239 20167 53002





000
SAUS44 KLZK 272254
MTRMWT
METAR KMWT 272253Z AUTO 00000KT 10SM CLR 21/02 A3008 RMK AO2 SLP188
T02110017





000
SAUS44 KLZK 272155
MTRMWT
METAR KMWT 272153Z AUTO VRB04KT 10SM CLR 23/M02 A3008 RMK AO2 SLP186
T02281022





000
SAUS44 KLZK 272055
MTRMWT
METAR KMWT 272053Z AUTO VRB03KT 10SM CLR 23/M02 A3008 RMK AO2 SLP187
T02281017 56013





000
SAUS44 KLZK 271954
MTRMWT
METAR KMWT 271953Z AUTO VRB03KT 10SM CLR 22/M01 A3009 RMK AO2 SLP188
T02221006





000
SAUS44 KLZK 271854
MTRMWT
METAR KMWT 271853Z AUTO VRB03KT 10SM CLR 21/01 A3011 RMK AO2 SLP193
T02060006





000
SAUS44 KLZK 271754
MTRMWT
METAR KMWT 271753Z AUTO 00000KT 10SM CLR 19/01 A3012 RMK AO2 SLP199
T01890011 10194 20011 50002





000
SAUS44 KLZK 271654
MTRMWT
METAR KMWT 271653Z AUTO 00000KT 10SM CLR 18/02 A3014 RMK AO2 SLP204
T01780022





000
SAUS44 KLZK 271554
MTRMWT
METAR KMWT 271553Z AUTO 00000KT 10SM CLR 14/03 A3013 RMK AO2 SLP204
T01440033





000
SAUS44 KLZK 271454
MTRMWT
METAR KMWT 271453Z AUTO 00000KT 10SM FEW002 07/03 A3011 RMK AO2
SLP202 T00670033 51021





000
SAUS44 KLZK 271354
MTRMWT
METAR KMWT 271353Z AUTO 00000KT 10SM CLR 03/00 A3010 RMK AO2 SLP197
T00280000





000
SAUS44 KLZK 271254
MTRMWT
METAR KMWT 271253Z AUTO 00000KT 10SM CLR 02/01 A3008 RMK AO2 SLP190
T00220006





000
SAUS44 KLZK 271154
MTRMWT
METAR KMWT 271153Z AUTO 00000KT 10SM CLR 02/00 A3005 RMK AO2 SLP180
T00220000 10094 20022 53013





000
SAUS44 KLZK 271054
MTRMWT
METAR KMWT 271053Z AUTO 00000KT 10SM CLR 02/01 A3003 RMK AO2 SLP170
T00220006





000
SAUS44 KLZK 270954
MTRMWT
METAR KMWT 270953Z AUTO 00000KT 10SM CLR 03/01 A3001 RMK AO2 SLP164
T00330006





000
SAUS44 KLZK 270954
MTRMWT
METAR KMWT 270953Z AUTO 00000KT 10SM CLR 03/01 A3001 RMK AO2 SLP164
T00330006





000
SAUS44 KLZK 270854
MTRMWT
METAR KMWT 270853Z AUTO 00000KT 10SM CLR 05/02 A3001 RMK AO2 SLP163
T00500017 51005





000
SAUS44 KLZK 270754
MTRMWT
METAR KMWT 270753Z AUTO 00000KT 10SM CLR 06/02 A3000 RMK AO2 SLP160
T00610022





000
SAUS44 KLZK 270654
MTRMWT
METAR KMWT 270653Z AUTO 00000KT 10SM CLR 08/02 A3000 RMK AO2 SLP161
T00780017





000
SAUS44 KLZK 270554
MTRMWT
METAR KMWT 270553Z AUTO 00000KT 10SM CLR 10/02 A3000 RMK AO2 SLP158
T01000022 10144 20089 402000006 52001





000
SAUS44 KLZK 270454
MTRMWT
METAR KMWT 270453Z AUTO VRB03KT 10SM CLR 12/02 A3000 RMK AO2 SLP159
T01170017





000
SAUS44 KLZK 270354
MTRMWT
METAR KMWT 270353Z AUTO 00000KT 10SM CLR 11/02 A2999 RMK AO2 SLP159
T01110017





000
SAUS44 KLZK 270254
MTRMWT
METAR KMWT 270253Z AUTO 30004KT 10SM CLR 09/02 A2999 RMK AO2 SLP161
T00940017 51007





000
SAUS44 KLZK 270154
MTRMWT
METAR KMWT 270153Z AUTO 32003KT 10SM CLR 11/02 A2999 RMK AO2 SLP162
T01060017





000
SAUS44 KLZK 270054
MTRMWT
METAR KMWT 270053Z AUTO 00000KT 10SM CLR 12/02 A2998 RMK AO2 SLP159
T01170017





000
SAUS44 KLZK 262354
MTRMWT
METAR KMWT 262353Z AUTO 00000KT 10SM CLR 14/02 A2997 RMK AO2 SLP154
T01440017 10200 20122 55000





000
SAUS44 KLZK 262254
MTRMWT
METAR KMWT 262253Z AUTO VRB04KT 10SM CLR 18/01 A2996 RMK AO2 SLP148
T01830006





000
SAUS44 KLZK 262154
MTRMWT
METAR KMWT 262153Z AUTO VRB04KT 10SM CLR 20/00 A2996 RMK AO2 SLP145
T02000000





000
SAUS44 KLZK 262054
MTRMWT
METAR KMWT 262053Z AUTO 10SM CLR 19/M01 A2997 RMK AO2 SLP150
T01891011 56039





000
SAUS44 KLZK 261954
MTRMWT
METAR KMWT 261953Z AUTO 28005KT 10SM CLR 18/M02 A2999 RMK AO2 SLP157
T01781017





000
SAUS44 KLZK 261854
MTRMWT
METAR KMWT 261853Z AUTO VRB03KT 10SM CLR 14/M01 A3004 RMK AO2 SLP173
T01441011





000
SAUS44 KLZK 261754
MTRMWT
METAR KMWT 261753Z AUTO VRB03KT 10SM CLR 13/M01 A3009 RMK AO2 SLP192
T01281006 10128 20006 58012





000
SAUS44 KLZK 261654
MTRMWT
METAR KMWT 261653Z AUTO 00000KT 10SM CLR 09/M01 A3012 RMK AO2 SLP203
T00891006





000
SAUS44 KLZK 261554
MTRMWT
METAR KMWT 261553Z AUTO VRB06KT 10SM CLR 07/00 A3013 RMK AO2 SLP209
T00720000





000
SAUS44 KLZK 261454
MTRMWT
METAR KMWT 261453Z AUTO VRB03KT 10SM CLR 04/M01 A3012 RMK AO2 SLP207
T00441006 50006





000
SAUS44 KLZK 261354
MTRMWT
METAR KMWT 261353Z AUTO 30003KT 10SM CLR 02/M01 A3013 RMK AO2 SLP210
T00171011 $





000
SAUS44 KLZK 261254
MTRMWT
METAR KMWT 261253Z AUTO 00000KT 10SM CLR 01/M02 A3013 RMK AO2 SLP208
T00111017 $





000
SAUS44 KLZK 261154
MTRMWT
METAR KMWT 261153Z AUTO 30003KT 10SM CLR 01/M01 A3011 RMK AO2 SLP201
T00111011 10072 20011 53007 $





000
SAUS44 KLZK 261054
MTRMWT
METAR KMWT 261053Z AUTO 00000KT 10SM CLR 02/M01 A3009 RMK AO2 SLP194
T00221011 $





000
SAUS44 KLZK 260954
MTRMWT
METAR KMWT 260953Z AUTO 31005KT 10SM CLR 03/M01 A3008 RMK AO2 SLP190
T00331006 $





000
SAUS44 KLZK 260854
MTRMWT
METAR KMWT 260853Z AUTO 31003KT 10SM CLR 04/M01 A3008 RMK AO2 SLP191
T00441006 53011 $





000
SAUS44 KLZK 260754
MTRMWT
METAR KMWT 260753Z AUTO 33004KT 10SM FEW032 05/M01 A3007 RMK AO2
SLP185 T00501006 $





000
SAUS44 KLZK 260654
MTRMWT
METAR KMWT 260653Z AUTO 31005KT 10SM SCT033 06/M01 A3005 RMK AO2
SLP181 T00611006 $





000
SAUS44 KLZK 260554
MTRMWT
METAR KMWT 260553Z AUTO VRB05KT 10SM BKN037 07/M01 A3005 RMK AO2
SLP177 T00671006 10111 20061 401720022 53020 $





000
SAUS44 KLZK 260455
MTRMWT
METAR KMWT 260453Z AUTO 32005G14KT 10SM OVC038 07/M01 A3003 RMK AO2
SLP169 T00721006 $





000
SAUS44 KLZK 260354
MTRMWT
METAR KMWT 260353Z AUTO 32005KT 10SM SCT040 08/M01 A3001 RMK AO2
SLP164 T00781006 $





000
SAUS44 KLZK 260254
MTRMWT
METAR KMWT 260253Z AUTO 33009G22KT 280V010 10SM CLR 09/M01 A2999 RMK
AO2 SLP158 T00891006 51026 $





000
SAUS44 KLZK 260157 COR
MTRMWT
METAR KMWT 260153Z AUTO 33007KT 10SM BKN047 OVC055 10/00 A2998 RMK
AO2 SLP156 T01000000 $





000
SAUS44 KLZK 260055
MTRMWT
METAR KMWT 260053Z AUTO 32010G23KT 280V360 10SM SCT049 OVC060 11/M01
A2995 RMK AO2 SLP145 T01061006 $





000
SAUS44 KLZK 252354
MTRMWT
METAR KMWT 252353Z AUTO 32011G18KT 10SM BKN050 OVC060 11/00 A2991
RMK AO2 SLP130 T01110000 10156 20111 51027 $





000
SAUS44 KLZK 252254
MTRMWT
METAR KMWT 252253Z AUTO 30011G22KT 270V330 10SM OVC060 11/M01 A2989
RMK AO2 PK WND 32029/2200 SLP123 T01111006 $





000
SAUS44 KLZK 252154
MTRMWT
METAR KMWT 252153Z AUTO 34011G24KT 10SM OVC055 12/00 A2987 RMK AO2
PK WND 33026/2129 SLP119 T01170000 $





000
SAUS44 KLZK 252054
MTRMWT
METAR KMWT 252053Z AUTO 33011G27KT 10SM BKN055 OVC070 12/01 A2983
RMK AO2 PK WND 29030/2021 SLP104 T01220006 $





000
SAUS44 KLZK 251954
MTRMWT
METAR KMWT 251953Z AUTO 32015G25KT 10SM BKN050 OVC065 13/00 A2980
RMK AO2 PK WND 32029/1938 SLP096 T01280000 $





000
SAUS44 KLZK 251915
MTRMWT
SPECI KMWT 251914Z AUTO 33013G24KT 3SM HZ 13/00 A2979 RMK AO2
T01330000 $





000
SAUS44 KLZK 251858
MTRMWT
SPECI KMWT 251857Z AUTO 32010G25KT 1 3/4SM HZ 14/00 A2979 RMK AO2
T01390000 $





000
SAUS44 KLZK 251854
MTRMWT
METAR KMWT 251853Z AUTO 32011G22KT 290V350 14/00 A2979 RMK AO2
SLP090 T01390000 $





000
SAUS44 KLZK 251841
MTRMWT
SPECI KMWT 251840Z AUTO 31019G31KT 2 1/2SM HZ BKN060 14/00 A2978 RMK
AO2 PK WND 31031/1839 VIS 1 3/4V5 T01440000





000
SAUS44 KLZK 251812
MTRMWT
SPECI KMWT 251810Z AUTO 30012G24KT 270V350 1 1/4SM HZ BKN055 14/01
A2978 RMK AO2 PK WND 33027/1800 VIS 3/4V2 1/2 T01440006





000
SAUS44 KLZK 251803
MTRMWT
SPECI KMWT 251802Z AUTO 32014G27KT 3/4SM HZ FEW017 BKN060 15/01
A2977 RMK AO2 PK WND 33027/1800 T01500006





000
SAUS44 KLZK 251754
MTRMWT
METAR KMWT 251753Z AUTO 32009G19KT 280V350 1/4SM HZ FEW002 BKN060
16/01 A2977 RMK AO2 SLP085 T01560011 10172 20078 58002





000
SAUS44 KLZK 251738
MTRMWT
SPECI KMWT 251737Z AUTO 30013G23KT 1/4SM HZ FEW002 SCT055 16/01
A2977 RMK AO2 VIS M1/4V4 T01610011





000
SAUS44 KLZK 251733
MTRMWT
SPECI KMWT 251732Z AUTO 30013G23KT 260V340 1 1/2SM HZ FEW050 15/01
A2977 RMK AO2 VIS 1/2V5 T01500006





000
SAUS44 KLZK 251655
MTRMWT
METAR KMWT 251653Z AUTO 32013G22KT 280V360 10SM FEW047 14/02 A2978
RMK AO2 SLP088 T01440017





000
SAUS44 KLZK 251554
MTRMWT
METAR KMWT 251553Z AUTO 30012G22KT 270V330 10SM CLR 13/02 A2978 RMK
AO2 SLP087 T01330022





000
SAUS44 KLZK 251454
MTRMWT
METAR KMWT 251453Z AUTO VRB03KT 10SM CLR 11/02 A2978 RMK AO2 SLP089
T01060022 53002





000
SAUS44 KLZK 251354
MTRMWT
METAR KMWT 251353Z AUTO VRB03KT 10SM CLR 08/02 A2978 RMK AO2 SLP087
T00830017





000
SAUS44 KLZK 251255
MTRMWT
METAR KMWT 251253Z AUTO 28004KT 10SM CLR 08/02 A2977 RMK AO2 SLP084
T00830017





000
SAUS44 KLZK 251154
MTRMWT
METAR KMWT 251153Z AUTO 29005KT 10SM BKN075 10/02 A2977 RMK AO2
SLP084 T01000017 10100 20022 55018





000
SAUS44 KLZK 251054
MTRMWT
METAR KMWT 251053Z AUTO 28004KT 10SM FEW120 09/02 A2977 RMK AO2
SLP081 T00940017





000
SAUS44 KLZK 250954
MTRMWT
METAR KMWT 250953Z AUTO 00000KT 10SM CLR 04/01 A2980 RMK AO2 SLP094
T00440006





000
SAUS44 KLZK 250954
MTRMWT
METAR KMWT 250953Z AUTO 00000KT 10SM CLR 04/01 A2980 RMK AO2 SLP094
T00440006





000
SAUS44 KLZK 250854
MTRMWT
METAR KMWT 250853Z AUTO 00000KT 10SM CLR 05/01 A2983 RMK AO2 SLP102
T00500011 56019





000
SAUS44 KLZK 250754
MTRMWT
METAR KMWT 250753Z AUTO 00000KT 10SM CLR 04/01 A2985 RMK AO2 SLP110
T00390006





000
SAUS44 KLZK 250654
MTRMWT
METAR KMWT 250653Z AUTO 00000KT 10SM CLR 06/01 A2986 RMK AO2 SLP113
T00560006





000
SAUS44 KLZK 250554
MTRMWT
METAR KMWT 250553Z AUTO 28003KT 10SM CLR 04/00 A2988 RMK AO2 SLP124
T00390000 10106 20017 401671033 56011





000
SAUS44 KLZK 250454
MTRMWT
METAR KMWT 250453Z AUTO 00000KT 10SM CLR 02/M01 A2989 RMK AO2 SLP128
T00171011





000
SAUS44 KLZK 250354
MTRMWT
METAR KMWT 250353Z AUTO 00000KT 10SM CLR 04/00 A2990 RMK AO2 SLP130
T00390000





000
SAUS44 KLZK 250254
MTRMWT
METAR KMWT 250253Z AUTO 00000KT 10SM CLR 04/M01 A2992 RMK AO2 SLP140
T00441006 58002





000
SAUS44 KLZK 250154
MTRMWT
METAR KMWT 250153Z AUTO 00000KT 10SM CLR 07/M01 A2993 RMK AO2 SLP144
T00671006





000
SAUS44 KLZK 250154
MTRMWT
METAR KMWT 250153Z AUTO 00000KT 10SM CLR 07/M01 A2993 RMK AO2 SLP144
T00671006





    US Dept of Commerce
    National Oceanic and Atmospheric Administration
    National Weather Service
    1325 East West Highway
    Silver Spring, MD 20910
    Page Author: NWS Internet Services Team
Disclaimer
Information Quality
Credits
Glossary
Privacy Policy
Freedom of Information Act (FOIA)
About Us
Career Opportunities